| time (UTC) | temp C | wind direction | speed KPH | gust KPH | rain 1hr cm | rain 24hr cm | rain mn cm | humidity % | barometer mb |
| 20260510094556 | 21 | 268 | 1.6 | 9.7 | 0.00 | 0.00 | 0.00 | 94 | 1011.5 |
| 20260510093110 | 21 | 0 | 0.0 | 0.0 | 0.00 | 0.00 | 0.00 | 94 | 1011.5 |
| 20260510091550 | 21 | 0 | 0.0 | 0.0 | 0.00 | 0.00 | 0.00 | 94 | 1011.6 |
| 20260510090049 | 21 | 0 | 0.0 | 0.0 | 0.00 | 0.00 | 0.00 | 94 | 1011.7 |
| 20260510084553 | 21 | 0 | 0.0 | 0.0 | 0.00 | 0.00 | 0.00 | 94 | 1011.7 |
| 20260510083058 | 21 | 0 | 0.0 | 0.0 | 0.00 | 0.00 | 0.00 | 93 | 1011.7 |
| 20260510081554 | 21 | 0 | 0.0 | 0.0 | 0.00 | 0.00 | 0.00 | 93 | 1011.7 |
| 20260510080048 | 22 | 0 | 0.0 | 0.0 | 0.00 | 0.00 | 0.00 | 93 | 1011.7 |
| 20260510074550 | 22 | 0 | 0.0 | 0.0 | 0.00 | 0.00 | 0.00 | 92 | 1011.6 |
| 20260510073058 | 22 | 0 | 0.0 | 4.8 | 0.00 | 0.00 | 0.00 | 91 | 1011.5 |
| 20260510071549 | 22 | 0 | 0.0 | 6.4 | 0.00 | 0.00 | 0.00 | 91 | 1011.5 |
| 20260510070053 | 22 | 0 | 0.0 | 0.0 | 0.00 | 0.00 | 0.00 | 90 | 1011.6 |
| 20260510064549 | 22 | 0 | 0.0 | 6.4 | 0.00 | 0.00 | 0.00 | 88 | 1011.7 |
| 20260510063050 | 22 | 0 | 0.0 | 9.7 | 0.00 | 0.00 | 0.00 | 87 | 1011.6 |
| 20260510061547 | 22 | 0 | 0.0 | 11.3 | 0.00 | 0.00 | 0.00 | 86 | 1011.4 |
| 20260510060050 | 22 | 271 | 3.2 | 11.3 | 0.00 | 0.00 | 0.00 | 85 | 1011.3 |
| 20260510054551 | 22 | 275 | 0.0 | 6.4 | 0.00 | 0.00 | 0.00 | 84 | 1011.4 |
| 20260510053052 | 22 | 0 | 0.0 | 0.0 | 0.00 | 0.00 | 0.00 | 83 | 1011.7 |
| 20260510051601 | 23 | 0 | 0.0 | 0.0 | 0.00 | 0.00 | 0.00 | 83 | 1011.7 |
| 20260510050054 | 23 | 0 | 0.0 | 0.0 | 0.00 | 0.00 | 0.00 | 82 | 1011.6 |
| 20260510044601 | 23 | 0 | 0.0 | 0.0 | 0.00 | 0.00 | 0.00 | 82 | 1011.4 |
| 20260510043048 | 23 | 0 | 0.0 | 0.0 | 0.00 | 0.00 | 0.00 | 81 | 1011.4 |
| 20260510041551 | 23 | 0 | 0.0 | 0.0 | 0.00 | 0.00 | 0.00 | 79 | 1011.4 |
| 20260510040053 | 24 | 0 | 0.0 | 0.0 | 0.00 | 0.00 | 0.00 | 78 | 1011.1 |
| 20260510034829 | 25 | 0 | 0.0 | 0.0 | 0.00 | 0.00 | 0.00 | 77 | 1010.9 |
| 20260510033059 | 25 | 0 | 0.0 | 6.4 | 0.00 | 0.00 | 0.00 | 76 | 1010.8 |
| 20260510031551 | 25 | 277 | 1.6 | 6.4 | 0.00 | 0.00 | 0.00 | 76 | 1010.3 |
| 20260510030101 | 25 | 263 | 0.0 | 4.8 | 0.00 | 0.00 | 0.00 | 75 | 1010.1 |
| 20260510024550 | 26 | 0 | 0.0 | 9.7 | 0.00 | 0.00 | 0.00 | 74 | 1009.9 |
| 20260510023052 | 26 | 275 | 3.2 | 9.7 | 0.00 | 0.00 | 0.00 | 73 | 1009.6 |
| 20260510021546 | 26 | 268 | 3.2 | 11.3 | 0.00 | 0.00 | 0.00 | 72 | 1009.7 |
| 20260510020050 | 27 | 277 | 8.0 | 14.5 | 0.00 | 0.00 | 0.00 | 70 | 1009.4 |
| 20260510014551 | 27 | 266 | 3.2 | 12.9 | 0.00 | 0.00 | 0.00 | 69 | 1009.6 |
| 20260510013050 | 27 | 0 | 1.6 | 12.9 | 0.00 | 0.00 | 0.00 | 67 | 1009.6 |
| 20260510011552 | 28 | 192 | 4.8 | 19.3 | 0.00 | 0.00 | 0.00 | 66 | 1009.5 |
| 20260510010047 | 28 | 278 | 8.0 | 17.7 | 0.00 | 0.00 | 0.00 | 66 | 1009.6 |
| 20260510004550 | 29 | 240 | 4.8 | 16.1 | 0.00 | 0.00 | 0.00 | 65 | 1009.3 |
| 20260510003050 | 29 | 273 | 4.8 | 17.7 | 0.00 | 0.00 | 0.00 | 65 | 1008.9 |
| 20260510001550 | 30 | 280 | 6.4 | 19.3 | 0.00 | 0.00 | 0.00 | 63 | 1008.5 |
| 20260510000051 | 31 | 268 | 9.7 | 27.4 | 0.00 | 0.00 | 0.00 | 57 | 1008.5 |
| 20260509234554 | 32 | 0 | 0.0 | 6.4 | 0.00 | 0.00 | 0.00 | 53 | 1008.3 |
| 20260509233051 | 32 | 0 | 0.0 | 0.0 | 0.00 | 0.00 | 0.00 | 55 | 1008.4 |
| 20260509231549 | 32 | 0 | 0.0 | 0.0 | 0.00 | 0.00 | 0.00 | 58 | 1008.5 |
| 20260509230049 | 32 | 0 | 0.0 | 0.0 | 0.00 | 0.00 | 0.00 | 56 | 1008.6 |
| 20260509224555 | 32 | 0 | 0.0 | 0.0 | 0.00 | 0.00 | 0.00 | 54 | 1008.6 |
| 20260509223051 | 32 | 0 | 0.0 | 0.0 | 0.00 | 0.00 | 0.00 | 53 | 1008.5 |
| 20260509221550 | 32 | 0 | 0.0 | 4.8 | 0.00 | 0.00 | 0.00 | 54 | 1008.6 |
| 20260509220049 | 32 | 205 | 0.0 | 4.8 | 0.00 | 0.00 | 0.00 | 54 | 1008.4 |
| 20260509214550 | 32 | 0 | 0.0 | 9.7 | 0.00 | 0.00 | 0.00 | 54 | 1008.5 |
| 20260509213118 | 32 | 0 | 3.2 | 6.4 | 0.00 | 0.00 | 0.00 | 54 | 1008.6 |
| 20260509211554 | 32 | 0 | 0.0 | 4.8 | 0.00 | 0.00 | 0.00 | 56 | 1008.6 |
| 20260509204550 | 31 | 136 | 1.6 | 8.0 | 0.00 | 0.00 | 0.00 | 58 | 1008.8 |
| 20260509203048 | 31 | 0 | 0.0 | 4.8 | 0.00 | 0.00 | 0.00 | 53 | 1008.9 |
| 20260509201546 | 32 | 0 | 1.6 | 8.0 | 0.00 | 0.00 | 0.00 | 53 | 1009.0 |
| 20260509200100 | 32 | 0 | 0.0 | 9.7 | 0.00 | 0.00 | 0.00 | 58 | 1009.0 |
| 20260509194552 | 31 | 51 | 1.6 | 6.4 | 0.00 | 0.00 | 0.00 | 59 | 1009.3 |
| 20260509193052 | 31 | 0 | 0.0 | 6.4 | 0.00 | 0.00 | 0.00 | 63 | 1009.6 |
| 20260509191549 | 31 | 68 | 0.0 | 11.3 | 0.00 | 0.00 | 0.00 | 63 | 1009.8 |
| 20260509190049 | 31 | 0 | 0.0 | 8.0 | 0.00 | 0.00 | 0.00 | 60 | 1009.8 |
| 20260509184555 | 31 | 67 | 0.0 | 8.0 | 0.00 | 0.00 | 0.00 | 63 | 1010.0 |
| 20260509183058 | 30 | 74 | 0.0 | 6.4 | 0.00 | 0.00 | 0.00 | 67 | 1010.1 |
| 20260509181558 | 30 | 49 | 3.2 | 11.3 | 0.00 | 0.00 | 0.00 | 68 | 1010.3 |
| 20260509180049 | 30 | 0 | 0.0 | 14.5 | 0.00 | 0.00 | 0.00 | 65 | 1010.4 |
| 20260509174550 | 30 | 86 | 1.6 | 12.9 | 0.00 | 0.00 | 0.00 | 70 | 1010.7 |
| 20260509173050 | 29 | 0 | 0.0 | 8.0 | 0.00 | 0.00 | 0.00 | 67 | 1010.8 |
| 20260509171553 | 28 | 0 | 0.0 | 11.3 | 0.00 | 0.00 | 0.00 | 70 | 1010.8 |
| 20260509170052 | 28 | 99 | 4.8 | 14.5 | 0.00 | 0.00 | 0.00 | 72 | 1010.8 |
| 20260509164551 | 28 | 54 | 0.0 | 11.3 | 0.00 | 0.00 | 0.00 | 71 | 1010.6 |
| 20260509163053 | 28 | 69 | 1.6 | 8.0 | 0.00 | 0.00 | 0.00 | 69 | 1010.7 |
| 20260509161548 | 27 | 0 | 0.0 | 8.0 | 0.00 | 0.00 | 0.00 | 69 | 1010.3 |
| 20260509160049 | 27 | 37 | 0.0 | 8.0 | 0.00 | 0.00 | 0.00 | 74 | 1009.9 |
| 20260509154553 | 27 | 270 | 1.6 | 9.7 | 0.00 | 0.00 | 0.00 | 72 | 1010.1 |
| 20260509153102 | 27 | 280 | 1.6 | 12.9 | 0.00 | 0.00 | 0.00 | 77 | 1010.1 |
| 20260509151554 | 26 | 271 | 1.6 | 11.3 | 0.00 | 0.00 | 0.00 | 81 | 1010.4 |
| 20260509150053 | 25 | 276 | 0.0 | 0.0 | 0.00 | 0.00 | 0.00 | 88 | 1010.8 |
| 20260509144557 | 24 | 0 | 0.0 | 1.6 | 0.00 | 0.00 | 0.00 | 92 | 1011.5 |
| 20260509143055 | 23 | 0 | 0.0 | 0.0 | 0.00 | 0.00 | 0.00 | 94 | 1011.6 |
| 20260509141551 | 23 | 0 | 0.0 | 0.0 | 0.00 | 0.00 | 0.00 | 95 | 1011.6 |
| 20260509140059 | 23 | 0 | 0.0 | 0.0 | 0.00 | 0.00 | 0.00 | 95 | 1011.4 |
| 20260509134551 | 23 | 0 | 0.0 | 0.0 | 0.00 | 0.00 | 0.00 | 96 | 1010.9 |
| 20260509133049 | 22 | 0 | 0.0 | 0.0 | 0.00 | 0.00 | 0.00 | 96 | 1011.2 |
| 20260509131550 | 22 | 0 | 0.0 | 0.0 | 0.00 | 0.00 | 0.00 | 96 | 1011.4 |
| 20260509130053 | 22 | 0 | 0.0 | 0.0 | 0.00 | 0.00 | 0.00 | 95 | 1011.3 |
| 20260509124548 | 22 | 0 | 0.0 | 3.2 | 0.00 | 0.00 | 0.00 | 95 | 1011.2 |
| 20260509123057 | 22 | 0 | 0.0 | 8.0 | 0.00 | 0.00 | 0.00 | 95 | 1011.0 |
| 20260509121601 | 22 | 0 | 0.0 | 16.1 | 0.00 | 0.00 | 0.00 | 95 | 1009.8 |
| 20260509120101 | 23 | 302 | 3.2 | 17.7 | 0.00 | 0.00 | 0.00 | 95 | 1009.6 |
| 20260509114547 | 23 | 194 | 12.9 | 25.7 | 0.00 | 0.00 | 0.00 | 96 | 1008.7 |
| 20260509113057 | 23 | 220 | 9.7 | 22.5 | 0.00 | 0.00 | 0.00 | 96 | 1008.3 |
| 20260509111555 | 23 | 211 | 9.7 | 20.9 | 0.00 | 0.00 | 0.00 | 96 | 1007.7 |
| 20260509110057 | 23 | 208 | 0.0 | 9.7 | 0.00 | 0.00 | 0.00 | 97 | 1010.7 |
| 20260509104553 | 23 | 0 | 3.2 | 11.3 | 0.00 | 0.00 | 0.00 | 97 | 1011.0 |
| 20260509103103 | 23 | 265 | 14.5 | 24.1 | 0.00 | 0.00 | 0.00 | 97 | 1009.9 |
| 20260509101601 | 23 | 0.0 | 0.0 | 0.00 | 0.00 | 0.00 | 97 | 1010.3 | |
| 20260509100052 | 23 | 0 | 0.0 | 1.6 | 0.00 | 0.00 | 0.00 | 97 | 1009.7 |